createdAt,value
2022-07-31T00:02:41.585Z,1009.32
2022-07-31T00:07:59.761Z,1009.249
2022-07-31T00:13:02.757Z,1009.287
2022-07-31T00:18:05.404Z,1009.228
2022-07-31T00:23:08.006Z,1009.229
2022-07-31T00:28:11.050Z,1009.193
2022-07-31T00:38:32.149Z,1009.117
2022-07-31T00:43:19.388Z,1009.034
2022-07-31T00:48:21.871Z,1008.967
2022-07-31T00:53:24.470Z,1008.948
2022-07-31T00:58:29.893Z,1008.926
2022-07-31T01:03:32.497Z,1008.884
2022-07-31T01:08:35.180Z,1008.934
2022-07-31T01:13:37.981Z,1008.885
2022-07-31T01:18:40.537Z,1008.951
2022-07-31T01:23:44.735Z,1008.987
2022-07-31T01:28:46.095Z,1009.046
2022-07-31T01:33:48.518Z,1009.064
2022-07-31T01:38:51.107Z,1009.147
2022-07-31T01:43:56.405Z,1009.068
2022-07-31T01:48:59.220Z,1009.111
2022-07-31T01:54:01.775Z,1009.064
2022-07-31T01:59:04.473Z,1008.984
2022-07-31T02:04:07.665Z,1009.007
2022-07-31T02:09:10.305Z,1008.984
2022-07-31T02:14:13.284Z,1008.902
2022-07-31T02:19:16.288Z,1008.831
2022-07-31T02:24:18.921Z,1008.907
2022-07-31T02:29:21.571Z,1009.006
2022-07-31T02:34:29.160Z,1009.026
2022-07-31T02:44:29.706Z,1009.036
2022-07-31T02:49:32.314Z,1008.941
2022-07-31T02:54:34.983Z,1008.803
2022-07-31T02:59:37.925Z,1008.757
2022-07-31T03:04:40.457Z,1008.759
2022-07-31T03:09:43.195Z,1008.779
2022-07-31T03:19:48.317Z,1008.715
2022-07-31T03:24:51.082Z,1008.764
2022-07-31T03:29:53.883Z,1008.851
2022-07-31T03:39:58.979Z,1008.764
2022-07-31T03:45:04.502Z,1008.778
2022-07-31T03:55:09.867Z,1008.709
2022-07-31T04:00:16.816Z,1008.737
2022-07-31T04:05:18.233Z,1008.799
2022-07-31T04:10:21.068Z,1008.796
2022-07-31T04:20:29.732Z,1008.832
2022-07-31T04:25:32.619Z,1008.837
2022-07-31T04:30:35.250Z,1008.756
2022-07-31T04:35:37.977Z,1008.844
2022-07-31T04:40:40.581Z,1008.813
2022-07-31T04:45:43.342Z,1008.831
2022-07-31T04:55:48.714Z,1008.814
2022-07-31T05:00:51.591Z,1008.873
2022-07-31T05:05:54.225Z,1008.926
2022-07-31T05:10:57.060Z,1008.922
2022-07-31T05:15:59.749Z,1008.928
2022-07-31T05:21:02.357Z,1008.935
2022-07-31T05:26:05.118Z,1008.979
2022-07-31T05:31:08.152Z,1009.003
2022-07-31T05:36:10.946Z,1008.952
2022-07-31T05:41:14.215Z,1009.032
2022-07-31T05:51:20.153Z,1009.101
2022-07-31T05:56:22.612Z,1009.141
2022-07-31T06:01:25.378Z,1009.171
2022-07-31T06:11:30.664Z,1009.151
2022-07-31T06:16:33.211Z,1009.13
2022-07-31T06:21:35.905Z,1009.205
2022-07-31T06:26:38.497Z,1009.241
2022-07-31T06:31:41.161Z,1009.183
2022-07-31T06:36:43.922Z,1009.068
2022-07-31T06:41:46.667Z,1009.147
2022-07-31T06:46:49.705Z,1009.15
2022-07-31T06:56:55.200Z,1009.229
2022-07-31T07:07:00.694Z,1009.131
2022-07-31T07:12:03.499Z,1009.172
2022-07-31T07:17:06.017Z,1009.156
2022-07-31T07:27:11.122Z,1009.084
2022-07-31T07:32:13.759Z,1009.068
2022-07-31T07:37:16.530Z,1008.97
2022-07-31T07:47:22.061Z,1008.847
2022-07-31T07:57:27.552Z,1008.818
2022-07-31T08:02:29.891Z,1008.739
2022-07-31T08:12:35.126Z,1008.73
2022-07-31T08:17:38.107Z,1008.743
2022-07-31T08:22:41.215Z,1008.713
2022-07-31T08:27:43.925Z,1008.733
2022-07-31T08:32:46.618Z,1008.763
2022-07-31T08:37:50.657Z,1008.777
2022-07-31T08:47:54.429Z,1008.713
2022-07-31T08:52:57.043Z,1008.62
2022-07-31T08:57:59.516Z,1008.577
2022-07-31T09:03:02.232Z,1008.551
2022-07-31T09:13:07.442Z,1008.447
2022-07-31T09:18:10.053Z,1008.387
2022-07-31T09:23:12.786Z,1008.353
2022-07-31T09:28:20.971Z,1008.347
2022-07-31T09:33:21.013Z,1008.371
2022-07-31T09:38:23.441Z,1008.297
2022-07-31T09:43:26.288Z,1008.307
2022-07-31T09:48:29.069Z,1008.278
2022-07-31T09:53:31.752Z,1008.305
2022-07-31T09:58:34.528Z,1008.276
2022-07-31T10:03:37.023Z,1008.205
2022-07-31T10:08:42.129Z,1008.129
2022-07-31T10:13:44.806Z,1008.196
2022-07-31T10:19:05.359Z,1008.105
2022-07-31T10:24:08.745Z,1008.076
2022-07-31T10:29:11.707Z,1007.9
2022-07-31T10:34:14.138Z,1008.039
2022-07-31T10:39:16.696Z,1008.006
2022-07-31T10:49:22.722Z,1007.931
2022-07-31T10:54:25.179Z,1007.863
2022-07-31T10:59:27.766Z,1007.789
2022-07-31T11:04:33.010Z,1007.829
2022-07-31T11:09:45.509Z,1007.789
2022-07-31T11:14:39.579Z,1007.731
2022-07-31T11:19:42.362Z,1007.823
2022-07-31T11:24:45.270Z,1007.812
2022-07-31T11:30:05.763Z,1007.739
2022-07-31T11:35:05.424Z,1007.72
2022-07-31T11:40:07.956Z,1007.784
2022-07-31T11:45:11.366Z,1007.65
2022-07-31T11:50:13.146Z,1007.615
2022-07-31T11:55:15.729Z,1007.542
2022-07-31T12:00:26.447Z,1007.519
2022-07-31T12:10:23.416Z,1007.42
2022-07-31T12:15:26.021Z,1007.459
2022-07-31T12:20:35.200Z,1007.486
2022-07-31T12:25:31.562Z,1007.379
2022-07-31T12:30:35.531Z,1007.311
2022-07-31T12:35:37.277Z,1007.323
2022-07-31T12:50:45.176Z,1007.179
2022-07-31T12:55:48.098Z,1007.219
2022-07-31T13:00:50.646Z,1007.175
2022-07-31T13:05:53.202Z,1007.063
2022-07-31T13:10:56.041Z,1006.948
2022-07-31T13:15:58.993Z,1006.794
2022-07-31T13:21:01.579Z,1006.85
2022-07-31T13:26:04.015Z,1006.789
2022-07-31T13:31:06.409Z,1006.66
2022-07-31T13:41:11.765Z,1006.545
2022-07-31T13:46:14.315Z,1006.568
2022-07-31T13:51:16.913Z,1006.51
2022-07-31T13:56:33.990Z,1006.433
2022-07-31T14:01:22.070Z,1006.347
2022-07-31T14:06:24.909Z,1006.335
2022-07-31T14:11:27.480Z,1006.237
2022-07-31T14:16:30.263Z,1006.236
2022-07-31T14:26:36.111Z,1006.222
2022-07-31T14:31:38.832Z,1006.109
2022-07-31T14:36:41.745Z,1006.082
2022-07-31T14:41:44.338Z,1006.089
2022-07-31T14:46:46.942Z,1006.02
2022-07-31T14:51:49.535Z,1006.074
2022-07-31T14:57:02.163Z,1006.011
2022-07-31T15:01:57.712Z,1006.042
2022-07-31T15:07:18.952Z,1006.027
2022-07-31T15:12:03.545Z,1006.028
2022-07-31T15:17:06.265Z,1006.015
2022-07-31T15:22:10.826Z,1006.005
2022-07-31T15:27:11.354Z,1005.99
2022-07-31T15:32:13.852Z,1005.996
2022-07-31T15:37:20.406Z,1005.98
2022-07-31T15:42:23.070Z,1005.938
2022-07-31T15:52:25.108Z,1005.935
2022-07-31T15:57:27.869Z,1005.892
2022-07-31T16:02:30.603Z,1005.877
2022-07-31T16:08:27.768Z,1005.84
2022-07-31T16:12:36.150Z,1005.821
2022-07-31T16:22:42.069Z,1005.752
2022-07-31T16:27:44.556Z,1005.73
2022-07-31T16:37:53.734Z,1005.66
2022-07-31T16:47:58.042Z,1005.6
2022-07-31T16:58:03.828Z,1005.56
2022-07-31T17:03:31.103Z,1005.534
2022-07-31T17:08:12.102Z,1005.496
2022-07-31T17:13:14.638Z,1005.407
2022-07-31T17:23:42.871Z,1005.48
2022-07-31T17:28:22.960Z,1005.389
2022-07-31T17:33:49.679Z,1005.395
2022-07-31T17:38:28.057Z,1005.427
2022-07-31T17:43:30.763Z,1005.474
2022-07-31T17:53:43.435Z,1005.406
2022-07-31T17:58:38.902Z,1005.434
2022-07-31T18:03:44.469Z,1005.367
2022-07-31T18:08:47.043Z,1005.357
2022-07-31T18:13:51.842Z,1005.374
2022-07-31T18:18:54.548Z,1005.427
2022-07-31T18:23:55.501Z,1005.449
2022-07-31T18:29:37.894Z,1005.438
2022-07-31T18:34:40.918Z,1005.464
2022-07-31T18:39:48.029Z,1005.441
2022-07-31T18:44:46.213Z,1005.461
2022-07-31T18:50:57.520Z,1005.458
2022-07-31T18:54:54.459Z,1005.475
2022-07-31T19:04:59.793Z,1005.501
2022-07-31T19:10:02.462Z,1005.52
2022-07-31T19:15:05.071Z,1005.503
2022-07-31T19:25:10.166Z,1005.53
2022-07-31T19:30:18.447Z,1005.535
2022-07-31T19:35:21.624Z,1005.582
2022-07-31T19:40:24.522Z,1005.611
2022-07-31T19:45:26.920Z,1005.549
2022-07-31T19:50:29.596Z,1005.523
2022-07-31T19:55:36.161Z,1005.452
2022-07-31T20:00:35.014Z,1005.427
2022-07-31T20:05:37.687Z,1005.415
2022-07-31T20:15:51.823Z,1005.382
2022-07-31T20:20:46.219Z,1005.348
2022-07-31T20:25:48.968Z,1005.332
2022-07-31T20:30:51.791Z,1005.359
2022-07-31T20:40:57.288Z,1005.229
2022-07-31T20:46:00.194Z,1005.226
2022-07-31T20:51:02.769Z,1005.165
2022-07-31T20:56:05.311Z,1005.114
2022-07-31T21:01:07.960Z,1005.124
2022-07-31T21:11:13.149Z,1005.091
2022-07-31T21:16:18.355Z,1005.036
2022-07-31T21:21:21.105Z,1004.965
2022-07-31T21:26:23.955Z,1004.872
2022-07-31T21:31:26.479Z,1004.865
2022-07-31T21:36:29.100Z,1004.821
2022-07-31T21:41:31.695Z,1004.792
2022-07-31T21:46:34.295Z,1004.808
2022-07-31T21:51:37.344Z,1004.742
2022-07-31T21:56:39.869Z,1004.795
2022-07-31T22:07:12.550Z,1004.807
2022-07-31T22:12:14.934Z,1004.937
2022-07-31T22:17:17.528Z,1004.816
2022-07-31T22:22:20.007Z,1004.991
2022-07-31T22:27:22.693Z,1004.961
2022-07-31T22:32:28.056Z,1004.991
2022-07-31T22:42:33.788Z,1005.021
2022-07-31T22:47:36.357Z,1005.05
2022-07-31T22:52:39.098Z,1005.066
2022-07-31T22:57:41.929Z,1005.077
2022-07-31T23:02:44.531Z,1005.162
2022-07-31T23:07:47.119Z,1005.17
2022-07-31T23:17:52.362Z,1005.286
2022-07-31T23:22:55.185Z,1005.177
2022-07-31T23:27:57.688Z,1005.145
2022-07-31T23:33:00.380Z,1005.088
2022-07-31T23:38:02.920Z,1005.107
2022-07-31T23:43:05.488Z,1005.068
2022-07-31T23:58:13.634Z,1005.066
